sensor_id;sensor_type;location;lat;lon;timestamp;P1;durP1;ratioP1;P2;durP2;ratioP2
70457;SDS011;57919;56.194;95.716;2022-12-18T00:00:41;71.53;;;34.97;;
70457;SDS011;57919;56.194;95.716;2022-12-18T00:10:44;28.02;;;14.95;;
70457;SDS011;57919;56.194;95.716;2022-12-18T00:20:47;40.20;;;20.30;;
70457;SDS011;57919;56.194;95.716;2022-12-18T00:30:48;62.17;;;31.93;;
70457;SDS011;57919;56.194;95.716;2022-12-18T00:40:52;78.72;;;39.35;;
70457;SDS011;57919;56.194;95.716;2022-12-18T00:50:54;77.65;;;48.20;;
70457;SDS011;57919;56.194;95.716;2022-12-18T01:00:56;92.00;;;48.87;;
70457;SDS011;57919;56.194;95.716;2022-12-18T01:10:58;103.43;;;53.60;;
70457;SDS011;57919;56.194;95.716;2022-12-18T01:21:04;72.65;;;36.13;;
70457;SDS011;57919;56.194;95.716;2022-12-18T01:31:11;103.90;;;48.47;;
70457;SDS011;57919;56.194;95.716;2022-12-18T01:41:16;105.60;;;51.23;;
70457;SDS011;57919;56.194;95.716;2022-12-18T01:51:20;108.53;;;55.55;;
70457;SDS011;57919;56.194;95.716;2022-12-18T02:01:22;73.10;;;34.90;;
70457;SDS011;57919;56.194;95.716;2022-12-18T02:32:18;153.15;;;56.15;;
70457;SDS011;57919;56.194;95.716;2022-12-18T02:42:27;346.07;;;181.63;;
70457;SDS011;57919;56.194;95.716;2022-12-18T03:13:30;15.00;;;7.60;;
70457;SDS011;57919;56.194;95.716;2022-12-18T03:23:42;5.73;;;2.80;;
70457;SDS011;57919;56.194;95.716;2022-12-18T03:33:54;66.70;;;40.45;;
70457;SDS011;57919;56.194;95.716;2022-12-18T03:54:45;31.27;;;12.47;;
70457;SDS011;57919;56.194;95.716;2022-12-18T04:04:52;67.15;;;39.05;;
70457;SDS011;57919;56.194;95.716;2022-12-18T04:14:57;45.08;;;16.48;;
70457;SDS011;57919;56.194;95.716;2022-12-18T04:24:59;37.77;;;14.20;;
70457;SDS011;57919;56.194;95.716;2022-12-18T04:35:09;56.77;;;22.43;;
70457;SDS011;57919;56.194;95.716;2022-12-18T04:45:16;64.63;;;28.10;;
70457;SDS011;57919;56.194;95.716;2022-12-18T04:55:20;41.83;;;21.50;;
70457;SDS011;57919;56.194;95.716;2022-12-18T05:05:22;45.70;;;21.47;;
70457;SDS011;57919;56.194;95.716;2022-12-18T05:15:30;54.50;;;24.10;;
70457;SDS011;57919;56.194;95.716;2022-12-18T05:25:33;42.07;;;19.00;;
70457;SDS011;57919;56.194;95.716;2022-12-18T05:35:35;91.07;;;36.63;;
70457;SDS011;57919;56.194;95.716;2022-12-18T05:45:37;106.65;;;48.35;;
70457;SDS011;57919;56.194;95.716;2022-12-18T05:55:41;28.83;;;18.20;;
70457;SDS011;57919;56.194;95.716;2022-12-18T06:05:44;42.00;;;19.93;;
70457;SDS011;57919;56.194;95.716;2022-12-18T06:15:46;38.87;;;21.33;;
70457;SDS011;57919;56.194;95.716;2022-12-18T06:25:49;93.80;;;38.60;;
70457;SDS011;57919;56.194;95.716;2022-12-18T06:35:51;61.13;;;27.27;;
70457;SDS011;57919;56.194;95.716;2022-12-18T06:45:58;78.47;;;32.17;;
70457;SDS011;57919;56.194;95.716;2022-12-18T06:56:05;42.97;;;15.13;;
70457;SDS011;57919;56.194;95.716;2022-12-18T07:06:15;26.70;;;12.90;;
70457;SDS011;57919;56.194;95.716;2022-12-18T07:16:19;42.53;;;15.87;;
70457;SDS011;57919;56.194;95.716;2022-12-18T07:26:22;23.42;;;11.45;;
70457;SDS011;57919;56.194;95.716;2022-12-18T07:36:25;85.85;;;32.67;;
70457;SDS011;57919;56.194;95.716;2022-12-18T07:46:27;22.17;;;8.23;;
70457;SDS011;57919;56.194;95.716;2022-12-18T07:56:29;31.27;;;7.67;;
70457;SDS011;57919;56.194;95.716;2022-12-18T08:06:31;15.57;;;7.43;;
70457;SDS011;57919;56.194;95.716;2022-12-18T08:16:33;16.07;;;6.17;;
70457;SDS011;57919;56.194;95.716;2022-12-18T08:26:35;10.63;;;4.70;;
70457;SDS011;57919;56.194;95.716;2022-12-18T08:36:37;63.58;;;26.38;;
70457;SDS011;57919;56.194;95.716;2022-12-18T08:46:40;189.67;;;48.20;;
70457;SDS011;57919;56.194;95.716;2022-12-18T08:56:43;262.27;;;76.80;;
70457;SDS011;57919;56.194;95.716;2022-12-18T09:06:45;84.80;;;30.92;;
70457;SDS011;57919;56.194;95.716;2022-12-18T09:16:47;38.88;;;13.98;;
70457;SDS011;57919;56.194;95.716;2022-12-18T09:26:52;179.80;;;76.70;;
70457;SDS011;57919;56.194;95.716;2022-12-18T09:36:55;170.67;;;79.07;;
70457;SDS011;57919;56.194;95.716;2022-12-18T09:47:43;141.95;;;57.70;;
70457;SDS011;57919;56.194;95.716;2022-12-18T09:57:30;143.60;;;67.37;;
70457;SDS011;57919;56.194;95.716;2022-12-18T10:07:49;230.63;;;92.37;;
70457;SDS011;57919;56.194;95.716;2022-12-18T10:28:39;85.53;;;44.33;;
70457;SDS011;57919;56.194;95.716;2022-12-18T10:38:42;92.80;;;37.13;;
70457;SDS011;57919;56.194;95.716;2022-12-18T10:59:03;30.48;;;14.35;;
70457;SDS011;57919;56.194;95.716;2022-12-18T11:09:20;41.30;;;17.43;;
70457;SDS011;57919;56.194;95.716;2022-12-18T11:19:35;72.10;;;24.07;;
70457;SDS011;57919;56.194;95.716;2022-12-18T11:29:39;31.27;;;14.73;;
70457;SDS011;57919;56.194;95.716;2022-12-18T11:39:57;51.70;;;18.10;;
70457;SDS011;57919;56.194;95.716;2022-12-18T12:00:36;152.77;;;50.00;;
70457;SDS011;57919;56.194;95.716;2022-12-18T12:21:40;88.70;;;36.90;;
70457;SDS011;57919;56.194;95.716;2022-12-18T12:41:53;9.63;;;5.03;;
70457;SDS011;57919;56.194;95.716;2022-12-18T12:52:17;12.33;;;4.87;;
70457;SDS011;57919;56.194;95.716;2022-12-18T13:13:16;6.50;;;2.50;;
70457;SDS011;57919;56.194;95.716;2022-12-18T13:43:30;2.30;;;0.77;;
70457;SDS011;57919;56.194;95.716;2022-12-18T13:53:39;22.07;;;8.90;;
70457;SDS011;57919;56.194;95.716;2022-12-18T14:03:46;4.70;;;1.37;;
70457;SDS011;57919;56.194;95.716;2022-12-18T14:13:48;27.17;;;1.60;;
70457;SDS011;57919;56.194;95.716;2022-12-18T14:34:26;8.00;;;3.30;;
70457;SDS011;57919;56.194;95.716;2022-12-18T14:44:28;8.63;;;2.80;;
70457;SDS011;57919;56.194;95.716;2022-12-18T14:54:31;9.20;;;3.80;;
70457;SDS011;57919;56.194;95.716;2022-12-18T15:04:36;12.73;;;5.30;;
70457;SDS011;57919;56.194;95.716;2022-12-18T15:14:41;4.83;;;1.73;;
70457;SDS011;57919;56.194;95.716;2022-12-18T15:24:43;3.00;;;1.17;;
70457;SDS011;57919;56.194;95.716;2022-12-18T15:34:46;12.23;;;5.70;;
70457;SDS011;57919;56.194;95.716;2022-12-18T15:44:48;8.17;;;1.27;;
70457;SDS011;57919;56.194;95.716;2022-12-18T15:54:49;12.77;;;5.07;;
70457;SDS011;57919;56.194;95.716;2022-12-18T16:05:13;5.40;;;2.38;;
70457;SDS011;57919;56.194;95.716;2022-12-18T16:15:18;6.37;;;3.20;;
70457;SDS011;57919;56.194;95.716;2022-12-18T16:25:24;9.37;;;3.73;;
70457;SDS011;57919;56.194;95.716;2022-12-18T16:35:28;1.58;;;0.77;;
70457;SDS011;57919;56.194;95.716;2022-12-18T16:45:30;6.30;;;2.93;;
70457;SDS011;57919;56.194;95.716;2022-12-18T16:55:34;10.27;;;5.37;;
70457;SDS011;57919;56.194;95.716;2022-12-18T17:05:36;4.60;;;2.08;;
70457;SDS011;57919;56.194;95.716;2022-12-18T17:15:38;11.27;;;4.70;;
70457;SDS011;57919;56.194;95.716;2022-12-18T17:25:40;17.20;;;4.33;;
70457;SDS011;57919;56.194;95.716;2022-12-18T17:35:41;5.18;;;2.63;;
70457;SDS011;57919;56.194;95.716;2022-12-18T17:45:44;3.80;;;2.30;;
70457;SDS011;57919;56.194;95.716;2022-12-18T17:55:57;12.13;;;3.80;;
70457;SDS011;57919;56.194;95.716;2022-12-18T18:06:06;3.73;;;1.27;;
70457;SDS011;57919;56.194;95.716;2022-12-18T18:16:09;4.35;;;1.35;;
70457;SDS011;57919;56.194;95.716;2022-12-18T18:26:12;7.40;;;3.70;;
70457;SDS011;57919;56.194;95.716;2022-12-18T18:36:14;7.33;;;1.40;;
70457;SDS011;57919;56.194;95.716;2022-12-18T18:46:16;4.55;;;2.10;;
70457;SDS011;57919;56.194;95.716;2022-12-18T18:56:19;4.60;;;1.83;;
70457;SDS011;57919;56.194;95.716;2022-12-18T19:06:25;3.27;;;1.27;;
70457;SDS011;57919;56.194;95.716;2022-12-18T19:16:29;6.65;;;3.22;;
70457;SDS011;57919;56.194;95.716;2022-12-18T19:26:31;3.88;;;1.88;;
70457;SDS011;57919;56.194;95.716;2022-12-18T19:36:36;7.60;;;3.10;;
70457;SDS011;57919;56.194;95.716;2022-12-18T19:46:39;2.70;;;0.77;;
70457;SDS011;57919;56.194;95.716;2022-12-18T19:56:43;5.00;;;1.90;;
70457;SDS011;57919;56.194;95.716;2022-12-18T20:16:52;2.03;;;0.70;;
70457;SDS011;57919;56.194;95.716;2022-12-18T20:26:54;3.22;;;0.80;;
70457;SDS011;57919;56.194;95.716;2022-12-18T20:36:56;6.13;;;2.13;;
70457;SDS011;57919;56.194;95.716;2022-12-18T20:46:58;3.70;;;1.23;;
70457;SDS011;57919;56.194;95.716;2022-12-18T20:57:03;12.20;;;2.90;;
70457;SDS011;57919;56.194;95.716;2022-12-18T21:07:05;2.22;;;1.25;;
70457;SDS011;57919;56.194;95.716;2022-12-18T21:17:07;3.80;;;1.30;;
70457;SDS011;57919;56.194;95.716;2022-12-18T21:27:10;2.70;;;1.23;;
70457;SDS011;57919;56.194;95.716;2022-12-18T21:37:12;4.53;;;0.82;;
70457;SDS011;57919;56.194;95.716;2022-12-18T21:47:14;6.40;;;2.90;;
70457;SDS011;57919;56.194;95.716;2022-12-18T21:57:16;4.23;;;0.97;;
70457;SDS011;57919;56.194;95.716;2022-12-18T22:07:19;5.68;;;1.70;;
70457;SDS011;57919;56.194;95.716;2022-12-18T22:17:20;5.63;;;2.00;;
70457;SDS011;57919;56.194;95.716;2022-12-18T22:27:22;4.10;;;2.33;;
70457;SDS011;57919;56.194;95.716;2022-12-18T22:37:24;10.45;;;1.77;;
70457;SDS011;57919;56.194;95.716;2022-12-18T22:47:26;9.07;;;1.85;;
70457;SDS011;57919;56.194;95.716;2022-12-18T22:57:28;8.90;;;2.03;;
70457;SDS011;57919;56.194;95.716;2022-12-18T23:07:30;3.57;;;1.17;;
70457;SDS011;57919;56.194;95.716;2022-12-18T23:17:32;1.77;;;0.70;;
70457;SDS011;57919;56.194;95.716;2022-12-18T23:27:33;9.40;;;3.00;;
70457;SDS011;57919;56.194;95.716;2022-12-18T23:37:35;3.10;;;1.23;;
70457;SDS011;57919;56.194;95.716;2022-12-18T23:47:37;1.63;;;0.47;;
70457;SDS011;57919;56.194;95.716;2022-12-18T23:57:39;10.83;;;3.57;;
